Portada
METAR-TAF:

METAR-TAF

Aeroports :

Joliet Regional Airport

Joliet, Illinois, Estats Units d'Amèrica

latitud: 41-31-05N, longitud: 088-10-31W, altitud: 177 m

Observació

L'informe es va fer fa 12 minuts, a les 07:15 UTC
Vent 8 kt del Oest
Temperatura 6°C
Humitat 81%
Pressió 1016 hPa
Visibilitat: 16.1 km
Núvols disperses a una alçada de 2800 ft
Núvols disperses a una alçada de 3300 ft

METAR: KJOT 300715Z AUTO 28008KT 10SM SCT028 SCT033 06/03 A2999 RMK AO2 T00610025

Hora: 02:27 (07:27 UTC)


TAF: manca

Observacions i pronòstics meteorològics de més de 4000 aeroports (METAR i TAF).

Les estacions disponibles són els punts grocs i vermells al mapa.

Posi el ratolí al punt desitjat per veure el nom de l'estació.

Feu clic per veure les observacions i els pronòstics meteorològics.

Per canviar el mapa: feu clic els botons verds amb una creu de color negre per apropar; al botó verd amb un guió per allunyar la imatge; o en les fletxes verdes per a mapes adjacents.


METAR-TAF: